Time;durP1;ratioP1;P1;durP2;ratioP2;P2;SDS_P1;SDS_P2;PMS_P1;PMS_P2;Temp;Humidity;BMP_temperature;BMP_pressure;BME280_temperature;BME280_humidity;BME280_pressure;Samples;Min_cycle;Max_cycle;Signal;HPM_P1;HPM_P2
2023/07/27 00:00:53;;;;;;;1.95;1.40;;;21.10;57.30;;;;;;5072984;28;20040;-80
2023/07/27 00:03:19;;;;;;;2.00;1.50;;;21.10;57.30;;;;;;5039241;28;20033;-79
2023/07/27 00:05:45;;;;;;;1.60;1.50;;;21.00;57.30;;;;;;5038807;28;20415;-81
2023/07/27 00:08:11;;;;;;;1.67;1.40;;;21.00;57.30;;;;;;5038797;28;20039;-80
2023/07/27 00:10:36;;;;;;;2.40;1.58;;;21.00;57.40;;;;;;5055772;28;20024;-81
2023/07/27 00:13:03;;;;;;;2.35;1.52;;;21.00;57.40;;;;;;5038942;28;20035;-81
2023/07/27 00:15:29;;;;;;;1.73;1.35;;;21.00;57.50;;;;;;5051834;28;20484;-81
2023/07/27 00:17:55;;;;;;;2.33;1.50;;;21.00;57.50;;;;;;5052360;28;20037;-80
2023/07/27 00:20:20;;;;;;;1.52;1.40;;;21.00;57.50;;;;;;5002947;28;20029;-81
2023/07/27 00:22:46;;;;;;;2.83;1.40;;;21.00;57.60;;;;;;5036249;28;20527;-81
2023/07/27 00:25:12;;;;;;;1.95;1.55;;;20.90;57.50;;;;;;5035371;28;20433;-80
2023/07/27 00:27:38;;;;;;;2.28;1.52;;;20.90;57.60;;;;;;5035615;28;20086;-81
2023/07/27 00:30:04;;;;;;;1.90;1.65;;;20.90;57.60;;;;;;5035581;28;20040;-81
2023/07/27 00:32:30;;;;;;;3.10;2.00;;;20.90;57.70;;;;;;5035594;28;20044;-81
2023/07/27 00:34:55;;;;;;;3.15;2.13;;;20.90;57.70;;;;;;5019304;28;20394;-81
2023/07/27 00:37:21;;;;;;;3.75;2.20;;;20.90;57.70;;;;;;5002741;28;20087;-81
2023/07/27 00:39:47;;;;;;;3.50;2.22;;;20.80;57.70;;;;;;5035933;28;20033;-81
2023/07/27 00:42:13;;;;;;;2.60;2.10;;;20.80;57.70;;;;;;5035309;28;20393;-81
2023/07/27 00:44:39;;;;;;;3.00;2.03;;;20.80;57.70;;;;;;5003767;28;20029;-81
2023/07/27 00:47:06;;;;;;;3.08;2.20;;;20.80;57.70;;;;;;5035465;28;20404;-81
2023/07/27 00:49:32;;;;;;;3.53;2.15;;;20.80;57.80;;;;;;5051902;28;20033;-80
2023/07/27 00:51:59;;;;;;;2.80;2.05;;;20.80;57.80;;;;;;5035096;28;20048;-80
2023/07/27 00:54:25;;;;;;;2.72;2.03;;;20.80;57.80;;;;;;5037048;28;20434;-82
2023/07/27 00:56:51;;;;;;;3.35;2.35;;;20.70;57.80;;;;;;5040134;28;20155;-81
2023/07/27 00:59:17;;;;;;;3.22;2.30;;;20.70;57.90;;;;;;5006491;28;20134;-81
2023/07/27 01:01:43;;;;;;;2.67;2.00;;;20.70;57.90;;;;;;5039139;28;20048;-81
2023/07/27 01:04:08;;;;;;;3.03;2.20;;;20.70;57.90;;;;;;5055737;28;20033;-81
2023/07/27 01:06:34;;;;;;;2.67;1.95;;;20.60;57.80;;;;;;5023205;28;20033;-81
2023/07/27 01:09:01;;;;;;;3.28;2.30;;;20.70;57.90;;;;;;5056958;28;20090;-80
2023/07/27 01:11:45;;;;;;;3.50;2.45;;;20.70;58.00;;;;;;5022628;28;20037;-81
2023/07/27 01:14:52;;;;;;;3.65;2.30;;;20.60;58.00;;;;;;5053147;28;20473;-80
2023/07/27 01:17:39;;;;;;;3.10;2.25;;;20.60;58.00;;;;;;4943823;28;20049;-80
2023/07/27 01:20:24;;;;;;;2.63;2.10;;;20.60;58.00;;;;;;5070288;28;20489;-80
2023/07/27 01:23:13;;;;;;;3.10;2.00;;;20.60;58.10;;;;;;5055655;28;20063;-82
2023/07/27 01:26:00;;;;;;;3.30;2.08;;;20.60;58.10;;;;;;5055310;28;20036;-80
2023/07/27 01:28:59;;;;;;;2.92;2.22;;;20.50;58.20;;;;;;5055563;28;20098;-81
2023/07/27 01:31:34;;;;;;;3.00;2.00;;;20.50;58.20;;;;;;5056517;28;20029;-80
2023/07/27 01:34:02;;;;;;;3.28;2.28;;;20.50;58.30;;;;;;5056560;28;20465;-80
2023/07/27 01:36:34;;;;;;;2.90;2.22;;;20.50;58.30;;;;;;5055317;28;20060;-80
2023/07/27 01:39:06;;;;;;;2.72;2.13;;;20.50;58.40;;;;;;5055131;28;20025;-80
2023/07/27 01:41:33;;;;;;;3.15;2.20;;;20.50;58.40;;;;;;5055296;28;20098;-80
2023/07/27 01:44:01;;;;;;;3.00;2.00;;;20.50;58.40;;;;;;5054995;28;20032;-79
2023/07/27 01:46:30;;;;;;;2.95;2.00;;;20.40;58.40;;;;;;5055058;28;20023;-79
2023/07/27 01:48:56;;;;;;;2.80;2.17;;;20.40;58.50;;;;;;5038128;28;20029;-80
2023/07/27 01:51:24;;;;;;;3.05;2.17;;;20.40;58.60;;;;;;5037993;28;20043;-80
2023/07/27 01:53:51;;;;;;;2.63;2.15;;;20.40;58.60;;;;;;5055949;28;20025;-82
2023/07/27 01:56:17;;;;;;;2.63;1.90;;;20.40;58.70;;;;;;5054594;28;20044;-80
2023/07/27 01:58:45;;;;;;;2.65;1.98;;;20.40;58.70;;;;;;5054716;28;20079;-80
2023/07/27 02:01:11;;;;;;;2.40;2.00;;;20.40;58.70;;;;;;5037854;28;20182;-79
2023/07/27 02:03:36;;;;;;;2.30;1.85;;;20.40;58.70;;;;;;5054574;28;20051;-79
2023/07/27 02:06:02;;;;;;;2.00;1.63;;;20.40;58.70;;;;;;5036565;28;20025;-80
2023/07/27 02:08:29;;;;;;;2.50;2.00;;;20.30;58.70;;;;;;5038017;28;20029;-79
2023/07/27 02:11:04;;;;;;;2.08;1.75;;;20.30;58.80;;;;;;5054670;28;20507;-79
2023/07/27 02:13:41;;;;;;;2.47;1.88;;;20.30;58.90;;;;;;5056045;28;20029;-79
2023/07/27 02:16:34;;;;;;;2.65;1.90;;;20.30;58.90;;;;;;5041868;28;20052;-82
2023/07/27 02:19:01;;;;;;;3.35;2.13;;;20.30;59.00;;;;;;5057715;28;20060;-80
2023/07/27 02:21:30;;;;;;;3.20;2.20;;;20.30;59.00;;;;;;5075487;28;20113;-82
2023/07/27 02:23:57;;;;;;;2.55;2.03;;;20.20;58.90;;;;;;5076060;28;20021;-79
2023/07/27 02:26:24;;;;;;;2.53;1.80;;;20.20;59.10;;;;;;5041473;28;20086;-79
2023/07/27 02:28:49;;;;;;;2.50;1.95;;;20.20;59.10;;;;;;5024994;28;20037;-81
2023/07/27 02:31:17;;;;;;;2.75;1.90;;;20.20;59.10;;;;;;5058123;28;20028;-79
2023/07/27 02:33:42;;;;;;;2.40;1.90;;;20.20;59.10;;;;;;5041015;28;20031;-79
2023/07/27 02:36:08;;;;;;;2.47;1.85;;;20.20;59.20;;;;;;5040696;28;20487;-80
2023/07/27 02:38:36;;;;;;;2.95;1.98;;;20.20;59.30;;;;;;5024945;28;20124;-79
2023/07/27 02:41:02;;;;;;;2.63;1.92;;;20.20;59.30;;;;;;5074842;28;20055;-81
2023/07/27 02:43:27;;;;;;;2.92;1.98;;;20.20;59.40;;;;;;5040489;28;20564;-80
2023/07/27 02:45:59;;;;;;;2.47;1.83;;;20.20;59.40;;;;;;5041109;28;20038;-80
2023/07/27 02:48:25;;;;;;;3.00;2.22;;;20.20;59.40;;;;;;5040863;28;20132;-81
2023/07/27 02:50:51;;;;;;;2.50;2.00;;;20.10;59.40;;;;;;5040573;28;20115;-80
2023/07/27 02:53:17;;;;;;;2.70;2.00;;;20.10;59.50;;;;;;5041342;28;20086;-80
2023/07/27 02:56:02;;;;;;;3.47;2.05;;;20.10;59.60;;;;;;5040146;28;20124;-79
2023/07/27 02:58:37;;;;;;;2.67;2.08;;;20.10;59.60;;;;;;5041384;28;20157;-80
2023/07/27 03:01:03;;;;;;;3.00;2.17;;;20.10;59.60;;;;;;5057496;28;20496;-80
2023/07/27 03:03:29;;;;;;;2.60;1.83;;;20.10;59.70;;;;;;5041040;28;20037;-80
2023/07/27 03:06:05;;;;;;;2.65;1.92;;;20.10;59.80;;;;;;5043225;28;20024;-81
2023/07/27 03:08:31;;;;;;;3.15;1.88;;;20.00;59.80;;;;;;5040148;28;20033;-80
2023/07/27 03:11:01;;;;;;;2.65;2.10;;;20.00;59.80;;;;;;5040335;28;20033;-80
2023/07/27 03:13:27;;;;;;;1.95;1.73;;;20.00;60.00;;;;;;5039927;28;20123;-80
2023/07/27 03:15:54;;;;;;;3.17;2.00;;;20.00;59.90;;;;;;5056532;28;20094;-80
2023/07/27 03:18:21;;;;;;;2.88;1.90;;;20.00;60.00;;;;;;5039500;28;20194;-81
2023/07/27 03:20:47;;;;;;;3.63;2.20;;;20.00;60.10;;;;;;5056327;28;20028;-79
2023/07/27 03:23:13;;;;;;;3.22;2.10;;;19.90;60.00;;;;;;5039805;28;20389;-83
2023/07/27 03:25:39;;;;;;;2.92;1.90;;;19.90;60.20;;;;;;5023328;28;20028;-79
2023/07/27 03:28:07;;;;;;;3.50;2.45;;;19.90;60.20;;;;;;5056566;28;20032;-80
2023/07/27 03:30:38;;;;;;;2.95;2.22;;;19.90;61.00;;;;;;5056061;28;20035;-79
2023/07/27 03:33:04;;;;;;;3.33;2.30;;;19.90;60.30;;;;;;5040202;28;20032;-80
2023/07/27 03:35:31;;;;;;;3.20;2.40;;;19.90;60.30;;;;;;5056778;28;20027;-80
2023/07/27 03:37:57;;;;;;;3.75;2.47;;;19.90;60.40;;;;;;5056149;28;20025;-81
2023/07/27 03:40:23;;;;;;;3.35;2.35;;;19.80;60.40;;;;;;5006679;28;20373;-80
2023/07/27 03:42:48;;;;;;;3.58;2.50;;;19.80;60.40;;;;;;5039261;28;20040;-80
2023/07/27 03:45:15;;;;;;;3.83;2.55;;;19.80;60.40;;;;;;5007537;28;20347;-82
2023/07/27 03:47:42;;;;;;;3.58;2.53;;;19.80;61.20;;;;;;5055871;28;20041;-79
2023/07/27 03:50:08;;;;;;;4.25;2.70;;;19.80;60.60;;;;;;5056027;28;20507;-80
2023/07/27 03:52:34;;;;;;;3.58;2.50;;;19.80;60.70;;;;;;5055877;28;20127;-81
2023/07/27 03:55:01;;;;;;;3.85;2.70;;;19.80;60.70;;;;;;5039309;28;20063;-80
2023/07/27 03:57:26;;;;;;;3.67;2.40;;;19.80;60.70;;;;;;5039198;28;20421;-80
2023/07/27 03:59:57;;;;;;;4.75;3.10;;;19.80;60.70;;;;;;5039513;28;20404;-79
2023/07/27 04:02:24;;;;;;;3.97;2.92;;;19.80;60.90;;;;;;5039756;28;20037;-80
2023/07/27 04:04:50;;;;;;;3.95;3.00;;;19.70;60.80;;;;;;5039601;28;20029;-80
2023/07/27 04:07:15;;;;;;;3.13;2.45;;;19.80;60.90;;;;;;5055424;28;20397;-80
2023/07/27 04:09:43;;;;;;;4.10;2.70;;;19.70;60.90;;;;;;5073609;28;20056;-80
2023/07/27 04:12:09;;;;;;;3.97;2.85;;;19.70;61.00;;;;;;5006846;28;20477;-80
2023/07/27 04:14:35;;;;;;;3.53;2.55;;;19.70;61.00;;;;;;5051791;28;20075;-80
2023/07/27 04:17:01;;;;;;;4.00;2.80;;;19.70;61.00;;;;;;5052395;28;20033;-80
2023/07/27 04:19:27;;;;;;;5.03;3.05;;;19.70;61.10;;;;;;5035644;28;20033;-80
2023/07/27 04:21:52;;;;;;;3.92;2.85;;;19.70;61.10;;;;;;5035710;28;20041;-82
2023/07/27 04:24:18;;;;;;;4.38;2.60;;;19.70;61.10;;;;;;5036329;28;20037;-81
2023/07/27 04:26:44;;;;;;;4.20;2.85;;;19.70;61.10;;;;;;5019173;28;20036;-80
2023/07/27 04:29:10;;;;;;;4.03;2.78;;;19.60;61.10;;;;;;5051888;28;20048;-80
2023/07/27 04:31:35;;;;;;;3.40;2.38;;;19.60;61.10;;;;;;5034945;28;20040;-80
2023/07/27 04:34:01;;;;;;;4.88;2.92;;;19.60;61.20;;;;;;5035294;28;20064;-80
2023/07/27 04:36:27;;;;;;;4.03;2.55;;;19.60;61.20;;;;;;5035883;28;20507;-80
2023/07/27 04:38:52;;;;;;;3.00;2.53;;;19.60;61.20;;;;;;5035362;28;20026;-81
2023/07/27 04:41:18;;;;;;;3.05;2.25;;;19.60;61.30;;;;;;5035266;28;20045;-79
2023/07/27 04:43:44;;;;;;;4.00;2.58;;;19.60;61.40;;;;;;5052124;28;20044;-81
2023/07/27 04:46:10;;;;;;;5.00;2.70;;;19.50;61.40;;;;;;5035443;28;20033;-80
2023/07/27 04:48:35;;;;;;;3.65;2.53;;;19.60;61.40;;;;;;5053769;28;20056;-80
2023/07/27 04:51:01;;;;;;;3.95;2.72;;;19.60;61.50;;;;;;5035391;28;20033;-80
2023/07/27 04:53:27;;;;;;;3.55;2.60;;;19.60;61.50;;;;;;5051890;28;20079;-83
2023/07/27 04:55:53;;;;;;;2.95;2.35;;;19.50;61.40;;;;;;5052513;28;20032;-80
2023/07/27 04:58:18;;;;;;;3.08;2.20;;;19.50;61.50;;;;;;5051968;28;20025;-77
2023/07/27 05:00:44;;;;;;;3.40;2.35;;;19.50;61.50;;;;;;5051796;28;20470;-80
2023/07/27 05:03:10;;;;;;;4.05;2.60;;;19.50;61.50;;;;;;5018846;28;20473;-78
2023/07/27 05:05:42;;;;;;;3.55;2.30;;;19.50;61.60;;;;;;5052074;28;20029;-79
2023/07/27 05:08:08;;;;;;;3.17;2.38;;;19.40;61.70;;;;;;5053043;28;20539;-78
2023/07/27 05:10:34;;;;;;;2.35;1.88;;;19.40;61.60;;;;;;5035133;28;20029;-78
2023/07/27 05:13:00;;;;;;;3.85;2.65;;;19.40;61.70;;;;;;5034975;28;20052;-78
2023/07/27 05:15:25;;;;;;;2.88;2.20;;;19.40;61.70;;;;;;5002106;28;20053;-79
2023/07/27 05:17:51;;;;;;;3.50;2.05;;;19.40;61.80;;;;;;5034961;28;20067;-78
2023/07/27 05:20:17;;;;;;;3.42;2.30;;;19.40;61.80;;;;;;5018394;28;20033;-81
2023/07/27 05:22:43;;;;;;;3.33;2.38;;;19.40;61.80;;;;;;5051767;28;20044;-80
2023/07/27 05:25:10;;;;;;;3.45;2.20;;;19.40;61.90;;;;;;5051474;28;20492;-80
2023/07/27 05:27:36;;;;;;;2.35;1.92;;;19.40;61.90;;;;;;5068203;28;20025;-80
2023/07/27 05:30:03;;;;;;;2.90;2.10;;;19.40;61.90;;;;;;5018770;28;20095;-83
2023/07/27 05:32:28;;;;;;;2.50;1.98;;;19.40;61.90;;;;;;5051711;28;20033;-81
2023/07/27 05:34:54;;;;;;;2.65;2.05;;;19.30;61.90;;;;;;5035358;28;20511;-81
2023/07/27 05:37:20;;;;;;;4.20;2.30;;;19.40;61.90;;;;;;5002948;28;20033;-81
2023/07/27 05:39:46;;;;;;;2.70;1.77;;;19.40;61.90;;;;;;5036047;28;20567;-83
2023/07/27 05:42:12;;;;;;;2.55;1.95;;;19.30;61.90;;;;;;5038466;28;20040;-80
2023/07/27 05:44:38;;;;;;;2.83;1.85;;;19.30;62.00;;;;;;5038411;28;20033;-81
2023/07/27 05:47:07;;;;;;;2.90;2.05;;;19.30;62.00;;;;;;5040198;28;20362;-81
2023/07/27 05:49:33;;;;;;;2.50;2.00;;;19.30;62.10;;;;;;5055245;28;20036;-80
2023/07/27 05:51:59;;;;;;;2.63;1.75;;;19.30;62.20;;;;;;5038439;28;20033;-80
2023/07/27 05:54:25;;;;;;;2.78;1.83;;;19.30;62.20;;;;;;5039422;28;20036;-79
2023/07/27 05:56:51;;;;;;;2.28;1.70;;;19.30;62.20;;;;;;5039091;28;20037;-80
2023/07/27 05:59:17;;;;;;;2.00;1.80;;;19.30;62.20;;;;;;5005970;28;20025;-84
2023/07/27 06:01:42;;;;;;;3.00;1.98;;;19.20;62.10;;;;;;5057036;28;20033;-82
2023/07/27 06:04:08;;;;;;;2.97;1.88;;;19.20;62.20;;;;;;5038154;28;20049;-80
2023/07/27 06:06:35;;;;;;;1.98;1.60;;;19.20;62.20;;;;;;5037872;28;20035;-77
2023/07/27 06:09:01;;;;;;;2.55;1.80;;;19.20;62.20;;;;;;5038398;28;20033;-78
2023/07/27 06:11:27;;;;;;;2.30;1.80;;;19.20;62.20;;;;;;5054268;28;20131;-79
2023/07/27 06:13:53;;;;;;;3.40;1.80;;;19.20;62.20;;;;;;5039228;28;20063;-80
2023/07/27 06:16:19;;;;;;;2.40;1.63;;;19.20;62.20;;;;;;5041160;28;20091;-80
2023/07/27 06:18:44;;;;;;;2.10;1.60;;;19.20;62.20;;;;;;5075329;28;20469;-79
2023/07/27 06:21:10;;;;;;;2.60;1.50;;;19.20;62.20;;;;;;5057501;28;20056;-78
2023/07/27 06:23:36;;;;;;;2.30;1.60;;;19.20;62.30;;;;;;5041759;28;20037;-79
2023/07/27 06:26:02;;;;;;;1.95;1.52;;;19.20;62.30;;;;;;5075577;28;20119;-79
2023/07/27 06:28:27;;;;;;;2.78;1.67;;;19.20;62.30;;;;;;5057428;28;20035;-78
2023/07/27 06:30:53;;;;;;;2.15;1.63;;;19.20;62.30;;;;;;5040922;28;20028;-79
2023/07/27 06:33:19;;;;;;;2.00;1.60;;;19.20;62.30;;;;;;5076032;28;20347;-79
2023/07/27 06:35:44;;;;;;;2.03;1.67;;;19.20;62.30;;;;;;5040815;28;20175;-78
2023/07/27 06:38:10;;;;;;;2.20;1.50;;;19.20;62.40;;;;;;5040740;28;20029;-78
2023/07/27 06:40:36;;;;;;;2.25;1.55;;;19.20;62.30;;;;;;5040551;28;20029;-78
2023/07/27 06:43:02;;;;;;;1.80;1.40;;;19.20;62.40;;;;;;5057854;28;20041;-78
2023/07/27 06:45:27;;;;;;;1.77;1.45;;;19.20;62.40;;;;;;5057168;28;20449;-78
2023/07/27 06:47:53;;;;;;;1.55;1.30;;;19.20;62.40;;;;;;5024729;28;20060;-78
2023/07/27 06:50:19;;;;;;;1.60;1.20;;;19.20;63.00;;;;;;5041208;28;20082;-78
2023/07/27 06:52:45;;;;;;;1.50;1.30;;;19.20;63.00;;;;;;5040472;28;20036;-78
2023/07/27 06:55:10;;;;;;;1.88;1.52;;;19.20;62.40;;;;;;5075210;28;20035;-78
2023/07/27 06:57:36;;;;;;;1.80;1.70;;;19.20;62.40;;;;;;5056843;28;20071;-79
2023/07/27 07:00:03;;;;;;;1.40;1.30;;;19.20;62.40;;;;;;5040314;28;20025;-81
2023/07/27 07:02:28;;;;;;;2.08;1.40;;;19.20;62.40;;;;;;5057146;28;20071;-81
2023/07/27 07:04:54;;;;;;;1.30;1.20;;;19.20;62.40;;;;;;5073856;28;20063;-78
2023/07/27 07:07:20;;;;;;;1.52;1.38;;;19.20;62.40;;;;;;5040521;28;20036;-78
2023/07/27 07:09:46;;;;;;;1.40;1.15;;;19.20;62.40;;;;;;5056591;28;20107;-78
2023/07/27 07:12:12;;;;;;;1.38;1.23;;;19.20;62.40;;;;;;5040183;28;20033;-77
2023/07/27 07:14:38;;;;;;;1.13;1.02;;;19.20;62.40;;;;;;5073265;28;20055;-78
2023/07/27 07:17:04;;;;;;;1.10;1.00;;;19.20;62.40;;;;;;5040393;28;20031;-78
2023/07/27 07:19:30;;;;;;;1.58;1.27;;;19.20;62.40;;;;;;5039773;28;20527;-79
2023/07/27 07:21:56;;;;;;;1.30;1.10;;;19.20;62.40;;;;;;5040063;28;20067;-79
2023/07/27 07:24:22;;;;;;;1.20;1.10;;;19.20;62.50;;;;;;5039257;28;20036;-79
2023/07/27 07:26:48;;;;;;;1.20;1.10;;;19.20;62.50;;;;;;5039814;28;20028;-79
2023/07/27 07:29:13;;;;;;;1.20;1.10;;;19.20;62.60;;;;;;5039473;28;20111;-80
2023/07/27 07:31:39;;;;;;;1.20;1.10;;;19.20;62.60;;;;;;5022743;28;20033;-80
2023/07/27 07:34:05;;;;;;;1.08;1.00;;;19.20;62.60;;;;;;5006863;28;20036;-79
2023/07/27 07:36:31;;;;;;;1.35;1.25;;;19.20;62.60;;;;;;5039682;28;20507;-79
2023/07/27 07:38:56;;;;;;;1.30;1.20;;;19.20;62.60;;;;;;5039397;28;20086;-80
2023/07/27 07:41:22;;;;;;;1.30;0.90;;;19.20;62.60;;;;;;5073303;28;20043;-79
2023/07/27 07:43:49;;;;;;;1.40;1.30;;;19.20;62.60;;;;;;5039478;28;20052;-79
2023/07/27 07:46:15;;;;;;;1.33;1.20;;;19.20;62.60;;;;;;5056409;28;20150;-79
2023/07/27 07:48:41;;;;;;;1.40;1.10;;;19.20;62.60;;;;;;5055351;28;20051;-79
2023/07/27 07:51:14;;;;;;;1.20;1.10;;;19.20;62.60;;;;;;5039000;28;20043;-79
2023/07/27 07:53:41;;;;;;;1.30;1.20;;;19.30;62.80;;;;;;5039590;28;20120;-78
2023/07/27 07:56:17;;;;;;;1.02;1.00;;;19.30;62.70;;;;;;5055351;28;20487;-79
2023/07/27 07:58:46;;;;;;;1.10;1.00;;;19.30;62.70;;;;;;5055585;28;20423;-79
2023/07/27 08:01:12;;;;;;;1.20;1.10;;;19.30;62.70;;;;;;5039024;28;20079;-79
2023/07/27 08:03:38;;;;;;;1.15;1.05;;;19.30;62.60;;;;;;5073250;28;20060;-80
2023/07/27 08:06:03;;;;;;;1.23;1.10;;;19.30;62.60;;;;;;5038618;28;20025;-79
2023/07/27 08:08:29;;;;;;;1.10;1.00;;;19.30;62.60;;;;;;5055446;28;20087;-79
2023/07/27 08:11:03;;;;;;;1.75;1.10;;;19.40;62.70;;;;;;5055842;28;20032;-78
2023/07/27 08:13:31;;;;;;;1.07;0.83;;;19.40;62.80;;;;;;5073625;28;20352;-80
2023/07/27 08:15:57;;;;;;;1.13;0.98;;;19.40;62.70;;;;;;5055025;28;20040;-79
2023/07/27 08:18:23;;;;;;;1.23;0.93;;;19.40;62.70;;;;;;5038349;28;20457;-80
2023/07/27 08:21:02;;;;;;;3.05;0.93;;;19.40;62.70;;;;;;5038603;28;20080;-79
2023/07/27 08:23:28;;;;;;;0.90;0.90;;;19.40;62.80;;;;;;5054932;28;20028;-79
2023/07/27 08:25:58;;;;;;;0.90;0.90;;;19.40;62.70;;;;;;5055183;28;20024;-80
2023/07/27 08:28:24;;;;;;;0.80;0.80;;;19.40;62.70;;;;;;5055821;28;20052;-77
2023/07/27 08:30:50;;;;;;;0.90;0.90;;;19.50;62.70;;;;;;5055075;28;20473;-78
2023/07/27 08:33:16;;;;;;;0.98;0.90;;;19.40;62.70;;;;;;5038308;28;20035;-78
2023/07/27 08:35:43;;;;;;;0.93;0.93;;;19.50;62.70;;;;;;5055130;28;20124;-78
2023/07/27 08:38:09;;;;;;;0.82;0.82;;;19.50;62.70;;;;;;5055290;28;20056;-78
2023/07/27 08:40:35;;;;;;;0.90;0.90;;;19.50;62.70;;;;;;5055251;28;20032;-78
2023/07/27 08:43:05;;;;;;;0.90;0.90;;;19.50;62.70;;;;;;5054827;28;20048;-77
2023/07/27 08:45:31;;;;;;;1.20;1.10;;;19.60;62.80;;;;;;5039056;28;20029;-78
2023/07/27 08:47:58;;;;;;;0.82;0.82;;;19.60;62.80;;;;;;5038464;28;20028;-77
2023/07/27 08:50:24;;;;;;;1.20;0.95;;;19.60;62.70;;;;;;5038259;28;20033;-78
2023/07/27 08:52:50;;;;;;;0.88;0.88;;;19.70;62.70;;;;;;5055341;28;20095;-78
2023/07/27 08:55:16;;;;;;;0.98;0.98;;;19.70;62.70;;;;;;5054768;28;20127;-77
2023/07/27 08:57:42;;;;;;;0.88;0.88;;;19.70;62.80;;;;;;5055825;28;20455;-77
2023/07/27 09:00:11;;;;;;;1.27;0.98;;;19.70;62.80;;;;;;5038454;28;20036;-78
2023/07/27 09:02:38;;;;;;;1.20;1.10;;;19.70;62.70;;;;;;5039346;28;20036;-77
2023/07/27 09:05:09;;;;;;;1.02;0.95;;;19.70;62.70;;;;;;5055359;28;20055;-78
2023/07/27 09:07:35;;;;;;;0.80;0.80;;;19.70;62.70;;;;;;5055450;28;20029;-79
2023/07/27 09:10:06;;;;;;;0.80;0.80;;;19.70;62.70;;;;;;5005601;28;20523;-78
2023/07/27 09:12:33;;;;;;;0.82;0.82;;;19.80;62.70;;;;;;5054757;28;20032;-77
2023/07/27 09:14:58;;;;;;;0.82;0.80;;;19.80;62.70;;;;;;5022484;28;20056;-77
2023/07/27 09:17:25;;;;;;;0.80;0.80;;;19.80;62.60;;;;;;5042552;28;20355;-77
2023/07/27 09:19:51;;;;;;;0.80;0.80;;;19.80;62.60;;;;;;5041889;28;20077;-77
2023/07/27 09:22:18;;;;;;;1.73;0.98;;;19.90;62.70;;;;;;5058278;28;20040;-78
2023/07/27 09:24:44;;;;;;;0.80;0.80;;;19.90;62.70;;;;;;5058391;28;20024;-78
2023/07/27 09:27:13;;;;;;;0.80;0.80;;;19.90;62.70;;;;;;5058329;28;20036;-79
2023/07/27 09:29:40;;;;;;;0.80;0.80;;;19.90;62.70;;;;;;5041784;28;20415;-76
2023/07/27 09:32:09;;;;;;;0.80;0.80;;;20.00;62.70;;;;;;5058089;28;20020;-78
2023/07/27 09:34:35;;;;;;;1.00;0.90;;;20.00;62.70;;;;;;5076466;28;20029;-78
2023/07/27 09:37:08;;;;;;;0.80;0.80;;;20.00;62.70;;;;;;5041761;28;20042;-79
2023/07/27 09:39:42;;;;;;;0.95;0.85;;;20.00;62.70;;;;;;5041835;28;20078;-78
2023/07/27 09:42:10;;;;;;;0.95;0.95;;;20.00;62.60;;;;;;5042616;28;20052;-79
2023/07/27 09:44:52;;;;;;;1.00;0.90;;;20.10;62.60;;;;;;5075044;28;20042;-78
2023/07/27 09:47:23;;;;;;;0.82;0.82;;;20.10;62.60;;;;;;5074332;28;20061;-79
2023/07/27 09:49:50;;;;;;;0.95;0.90;;;20.10;62.50;;;;;;5041604;28;20119;-79
2023/07/27 09:52:19;;;;;;;0.77;0.77;;;20.10;62.50;;;;;;5041299;28;20029;-78
2023/07/27 09:54:48;;;;;;;0.88;0.88;;;20.10;62.50;;;;;;5041472;28;20060;-78
2023/07/27 09:57:14;;;;;;;1.17;0.88;;;20.20;62.60;;;;;;5041157;28;20123;-79
2023/07/27 09:59:42;;;;;;;0.98;0.90;;;20.20;62.50;;;;;;5041320;28;20169;-78
2023/07/27 10:02:08;;;;;;;1.00;1.00;;;20.20;62.60;;;;;;5057680;28;20029;-81
2023/07/27 10:04:34;;;;;;;1.10;0.93;;;20.20;62.50;;;;;;5041466;28;20033;-80
2023/07/27 10:07:01;;;;;;;0.82;0.82;;;20.20;62.60;;;;;;5024804;28;20029;-81
2023/07/27 10:09:26;;;;;;;0.90;0.90;;;20.20;62.60;;;;;;5041070;28;20032;-80
2023/07/27 10:11:54;;;;;;;0.95;0.93;;;20.30;62.60;;;;;;5041007;28;20043;-84
2023/07/27 10:14:23;;;;;;;0.90;0.90;;;20.30;62.70;;;;;;5057954;28;20111;-81
2023/07/27 10:17:02;;;;;;;1.00;1.00;;;20.30;62.70;;;;;;5058277;28;20036;-80
2023/07/27 10:19:46;;;;;;;1.00;1.00;;;20.30;62.70;;;;;;5041628;28;20050;-80
2023/07/27 10:22:13;;;;;;;1.00;1.00;;;20.30;62.70;;;;;;5057153;28;20059;-81
2023/07/27 10:24:47;;;;;;;0.80;0.80;;;20.40;62.60;;;;;;5057249;28;20028;-80
2023/07/27 10:27:12;;;;;;;1.02;0.85;;;20.40;62.60;;;;;;5056260;28;20051;-79
2023/07/27 10:29:38;;;;;;;0.80;0.80;;;20.40;62.50;;;;;;5040644;28;20127;-80
2023/07/27 10:32:05;;;;;;;1.10;1.00;;;20.40;62.50;;;;;;5040503;28;20039;-81
2023/07/27 10:34:36;;;;;;;0.95;0.95;;;20.40;62.50;;;;;;5057593;28;20032;-80
2023/07/27 10:37:06;;;;;;;1.00;0.90;;;20.40;62.50;;;;;;5041451;28;20032;-79
2023/07/27 10:39:34;;;;;;;0.73;0.73;;;20.50;62.60;;;;;;5057900;28;20024;-81
2023/07/27 10:42:07;;;;;;;1.20;1.10;;;20.50;62.60;;;;;;5056946;28;20096;-81
2023/07/27 10:44:49;;;;;;;0.90;0.90;;;20.50;62.60;;;;;;5040303;28;20028;-80
2023/07/27 10:47:28;;;;;;;1.10;1.00;;;20.50;62.60;;;;;;5057187;28;20039;-77
2023/07/27 10:49:58;;;;;;;1.17;1.00;;;20.50;62.60;;;;;;5073978;28;20028;-79
2023/07/27 10:52:29;;;;;;;1.17;1.08;;;20.50;62.60;;;;;;5040801;28;20032;-79
2023/07/27 10:54:59;;;;;;;1.58;1.10;;;20.60;62.60;;;;;;5057131;28;20036;-78
2023/07/27 10:57:31;;;;;;;1.02;0.90;;;20.60;62.60;;;;;;5056465;28;20557;-79
2023/07/27 10:59:58;;;;;;;0.95;0.93;;;20.60;62.60;;;;;;5057761;28;20055;-79
2023/07/27 11:02:29;;;;;;;1.00;1.00;;;20.60;62.60;;;;;;5039674;28;20047;-79
2023/07/27 11:05:05;;;;;;;1.02;1.00;;;20.60;62.60;;;;;;5039958;28;20028;-78
2023/07/27 11:07:35;;;;;;;0.93;0.93;;;20.60;62.60;;;;;;5040400;28;20538;-78
2023/07/27 11:10:08;;;;;;;1.15;1.05;;;20.70;62.70;;;;;;5072799;28;20149;-79
2023/07/27 11:12:54;;;;;;;0.95;0.95;;;20.60;62.60;;;;;;5074441;28;20461;-78
2023/07/27 11:15:25;;;;;;;1.58;1.00;;;20.70;62.70;;;;;;5055930;28;20103;-79
2023/07/27 11:17:53;;;;;;;0.80;0.80;;;20.70;62.70;;;;;;5056049;28;20036;-79
2023/07/27 11:20:21;;;;;;;0.82;0.82;;;20.70;62.60;;;;;;5056344;28;20030;-79
2023/07/27 11:22:48;;;;;;;0.80;0.80;;;20.70;62.60;;;;;;5039595;28;20050;-79
2023/07/27 11:25:14;;;;;;;0.90;0.90;;;20.70;62.60;;;;;;5039453;28;20469;-79
2023/07/27 11:27:40;;;;;;;1.10;1.00;;;20.80;62.60;;;;;;5074110;28;20060;-80
2023/07/27 11:30:09;;;;;;;0.90;0.90;;;20.80;62.60;;;;;;5039470;28;20067;-80
2023/07/27 11:32:35;;;;;;;0.95;0.93;;;20.80;62.60;;;;;;5056080;28;20111;-79
2023/07/27 11:35:01;;;;;;;1.10;1.00;;;20.80;62.60;;;;;;5039392;28;20059;-80
2023/07/27 11:37:30;;;;;;;0.85;0.82;;;20.80;62.50;;;;;;5038983;28;20060;-80
2023/07/27 11:39:56;;;;;;;0.90;0.90;;;20.90;62.60;;;;;;5056490;28;20035;-80
2023/07/27 11:42:38;;;;;;;0.90;0.90;;;20.80;62.60;;;;;;5055643;28;20036;-80
2023/07/27 11:45:06;;;;;;;0.95;0.95;;;20.90;62.70;;;;;;5056245;28;20093;-81
2023/07/27 11:47:38;;;;;;;0.98;0.90;;;20.90;62.60;;;;;;5006844;28;20054;-80
2023/07/27 11:50:08;;;;;;;1.17;1.08;;;20.90;62.60;;;;;;5055731;28;20112;-81
2023/07/27 11:52:38;;;;;;;1.00;1.00;;;20.90;62.50;;;;;;5073922;28;20115;-80
2023/07/27 11:55:05;;;;;;;1.23;1.13;;;20.90;62.50;;;;;;5055581;28;20529;-80
2023/07/27 11:57:30;;;;;;;1.02;1.02;;;21.00;62.60;;;;;;5022880;28;20025;-80
2023/07/27 12:00:13;;;;;;;1.15;1.05;;;20.90;62.50;;;;;;5055787;28;20101;-79
2023/07/27 12:02:40;;;;;;;1.17;1.10;;;21.00;62.60;;;;;;5055498;28;20128;-79
2023/07/27 12:05:06;;;;;;;1.10;1.00;;;21.00;62.50;;;;;;5038459;28;20028;-81
2023/07/27 12:07:36;;;;;;;1.00;1.00;;;21.00;62.50;;;;;;5038780;28;20122;-80
2023/07/27 12:10:06;;;;;;;0.88;0.88;;;21.00;62.50;;;;;;5038812;28;20047;-80
2023/07/27 12:12:32;;;;;;;0.90;0.90;;;21.10;62.60;;;;;;5056057;28;20121;-79
2023/07/27 12:14:58;;;;;;;1.05;1.00;;;21.10;62.50;;;;;;5005817;28;20523;-79
2023/07/27 12:17:24;;;;;;;0.90;0.90;;;21.10;62.50;;;;;;5006299;28;20060;-79
2023/07/27 12:19:50;;;;;;;1.08;1.00;;;21.10;62.50;;;;;;5039146;28;20469;-82
2023/07/27 12:22:17;;;;;;;1.00;1.00;;;21.10;62.50;;;;;;5073525;28;20029;-81
2023/07/27 12:24:44;;;;;;;1.00;0.95;;;21.10;62.50;;;;;;5073491;28;20040;-78
2023/07/27 12:27:10;;;;;;;0.93;0.93;;;21.20;62.60;;;;;;5039852;28;20421;-80
2023/07/27 12:29:36;;;;;;;0.93;0.93;;;21.20;62.50;;;;;;5055427;28;20106;-78
2023/07/27 12:32:02;;;;;;;0.90;0.90;;;21.20;62.50;;;;;;5073919;28;20177;-78
2023/07/27 12:34:27;;;;;;;0.93;0.93;;;21.20;62.40;;;;;;5039138;28;20037;-78
2023/07/27 12:36:53;;;;;;;1.13;1.00;;;21.20;62.40;;;;;;5055310;28;20025;-78
2023/07/27 12:39:19;;;;;;;1.00;1.00;;;21.20;62.40;;;;;;5022696;28;20039;-78
2023/07/27 12:41:45;;;;;;;1.17;1.10;;;21.30;62.50;;;;;;5022464;28;20075;-78
2023/07/27 12:44:10;;;;;;;0.85;0.85;;;21.30;62.40;;;;;;5073010;28;20078;-78
2023/07/27 12:46:36;;;;;;;0.90;0.90;;;21.30;62.40;;;;;;5038686;28;20029;-78
2023/07/27 12:49:02;;;;;;;1.00;1.00;;;21.30;62.40;;;;;;5055074;28;20024;-78
2023/07/27 12:51:27;;;;;;;0.95;0.95;;;21.30;62.40;;;;;;5041942;28;20240;-78